createdAt,value
2022-11-15T00:02:26.569Z,21.50
2022-11-15T00:10:01.904Z,21.63
2022-11-15T00:17:35.697Z,21.83
2022-11-15T00:25:10.985Z,20.50
2022-11-15T00:32:44.771Z,21.23
2022-11-15T00:40:20.101Z,21.10
2022-11-15T00:47:54.535Z,19.33
2022-11-15T00:55:29.687Z,19.52
2022-11-15T01:03:03.907Z,19.67
2022-11-15T01:10:39.187Z,20.38
2022-11-15T01:18:12.991Z,19.67
2022-11-15T01:25:48.160Z,19.67
2022-11-15T01:33:22.133Z,20.48
2022-11-15T01:40:57.342Z,21.13
2022-11-15T01:48:34.978Z,19.35
2022-11-15T01:56:13.580Z,21.33
2022-11-15T02:03:53.873Z,19.30
2022-11-15T02:11:29.122Z,19.45
2022-11-15T02:19:15.595Z,19.23
2022-11-15T02:27:22.395Z,18.23
2022-11-15T02:35:04.272Z,17.63
2022-11-15T02:43:04.347Z,19.33
2022-11-15T02:50:42.853Z,19.05
2022-11-15T02:58:40.719Z,19.63
2022-11-15T03:06:27.651Z,19.90
2022-11-15T03:14:08.973Z,19.17
2022-11-15T03:21:45.968Z,18.58
2022-11-15T03:29:24.293Z,18.65
2022-11-15T03:36:59.456Z,19.55
2022-11-15T03:44:43.365Z,18.67
2022-11-15T03:52:20.823Z,18.75
2022-11-15T03:59:54.594Z,19.83
2022-11-15T04:07:30.196Z,18.90
2022-11-15T04:15:09.086Z,19.60
2022-11-15T04:23:12.788Z,18.85
2022-11-15T04:30:46.668Z,18.88
2022-11-15T04:38:22.076Z,20.03
2022-11-15T04:45:55.889Z,19.80
2022-11-15T04:53:31.539Z,20.23
2022-11-15T05:01:09.986Z,19.00
2022-11-15T05:08:45.170Z,20.38
2022-11-15T05:16:18.949Z,18.95
2022-11-15T05:23:54.239Z,18.87
2022-11-15T05:31:29.304Z,18.20
2022-11-15T05:39:06.175Z,18.33
2022-11-15T05:46:42.195Z,18.40
2022-11-15T05:54:19.606Z,19.45
2022-11-15T06:01:53.723Z,18.95
2022-11-15T06:09:28.981Z,18.08
2022-11-15T06:17:07.223Z,19.35
2022-11-15T06:24:45.254Z,18.75
2022-11-15T06:32:19.089Z,18.27
2022-11-15T06:39:54.493Z,19.47
2022-11-15T06:47:28.548Z,19.27
2022-11-15T06:55:04.483Z,17.08
2022-11-15T07:02:38.185Z,19.08
2022-11-15T07:10:13.443Z,18.77
2022-11-15T07:17:47.553Z,20.13
2022-11-15T07:25:22.812Z,18.98
2022-11-15T07:32:57.362Z,20.67
2022-11-15T07:40:33.783Z,20.20
2022-11-15T07:48:08.246Z,22.77
2022-11-15T07:55:45.143Z,24.23
2022-11-15T08:03:19.647Z,21.30
2022-11-15T08:10:54.845Z,25.33
2022-11-15T08:18:29.228Z,25.42
2022-11-15T08:26:05.715Z,27.05
2022-11-15T08:33:39.780Z,25.23
2022-11-15T08:41:17.877Z,23.27
2022-11-15T08:48:51.625Z,24.60
2022-11-15T08:56:27.881Z,24.92
2022-11-15T09:04:02.007Z,22.17
2022-11-15T09:11:37.259Z,19.33
2022-11-15T09:19:12.066Z,21.23
2022-11-15T09:26:47.455Z,19.60
2022-11-15T09:34:21.973Z,17.42
2022-11-15T09:42:22.894Z,19.55
2022-11-15T09:49:59.670Z,16.00
2022-11-15T09:57:42.879Z,18.15
2022-11-15T10:05:21.483Z,16.95
2022-11-15T10:12:57.425Z,15.85
2022-11-15T10:20:37.747Z,17.77
2022-11-15T10:28:17.495Z,18.25
2022-11-15T10:36:11.469Z,16.50
2022-11-15T10:43:47.678Z,14.55
2022-11-15T10:51:26.597Z,18.05
2022-11-15T10:59:01.821Z,15.57
2022-11-15T11:06:48.895Z,14.10
2022-11-15T11:14:28.120Z,13.48
2022-11-15T11:22:11.656Z,13.85
2022-11-15T11:30:02.841Z,13.90
2022-11-15T11:37:45.514Z,13.45
2022-11-15T11:45:28.857Z,12.00
2022-11-15T11:53:07.932Z,12.30
2022-11-15T12:00:52.067Z,11.23
2022-11-15T12:08:35.449Z,10.30
2022-11-15T12:16:18.001Z,9.02
2022-11-15T12:23:55.523Z,9.02
2022-11-15T12:31:42.027Z,10.90
2022-11-15T12:39:16.838Z,9.30
2022-11-15T12:47:25.116Z,11.63
2022-11-15T12:55:05.015Z,9.23
2022-11-15T13:02:42.911Z,9.43
2022-11-15T13:10:32.770Z,9.45
2022-11-15T13:18:43.131Z,8.65
2022-11-15T13:26:18.538Z,8.52
2022-11-15T13:33:52.588Z,9.40
2022-11-15T13:41:29.929Z,8.82
2022-11-15T13:49:05.997Z,8.02
2022-11-15T13:56:44.788Z,8.77
2022-11-15T14:04:22.590Z,7.78
2022-11-15T14:11:58.991Z,7.07
2022-11-15T14:19:39.832Z,8.02
2022-11-15T14:27:27.097Z,9.50
2022-11-15T14:35:02.132Z,10.02
2022-11-15T14:50:14.726Z,10.82
2022-11-15T14:57:50.110Z,9.75
2022-11-15T15:05:25.822Z,10.65
2022-11-15T15:13:01.222Z,10.48
2022-11-15T15:20:40.737Z,11.13
2022-11-15T15:28:16.091Z,11.40
2022-11-15T15:35:50.325Z,10.18
2022-11-15T15:43:25.657Z,11.80
2022-11-15T15:50:59.597Z,12.40
2022-11-15T15:58:35.345Z,12.43
2022-11-15T16:06:39.409Z,12.38
2022-11-15T16:14:14.595Z,12.73
2022-11-15T16:21:49.569Z,11.00
2022-11-15T16:29:24.766Z,11.63
2022-11-15T16:36:58.581Z,13.02
2022-11-15T16:44:33.979Z,13.20
2022-11-15T16:52:07.967Z,12.75
2022-11-15T16:59:43.091Z,14.85
2022-11-15T17:07:17.158Z,13.77
2022-11-15T17:14:52.385Z,14.23
2022-11-15T17:22:26.838Z,14.05
2022-11-15T17:30:02.334Z,15.25
2022-11-15T17:37:36.875Z,13.65
2022-11-15T17:45:12.669Z,14.80
2022-11-15T17:52:46.492Z,18.00
2022-11-15T18:00:29.665Z,16.58
2022-11-15T18:08:03.596Z,19.85
2022-11-15T18:15:38.907Z,23.65
2022-11-15T18:23:12.742Z,22.73
2022-11-15T18:30:48.341Z,23.40
2022-11-15T18:38:22.134Z,25.48
2022-11-15T18:45:57.406Z,27.23
2022-11-15T18:53:31.942Z,26.73
2022-11-15T19:01:09.479Z,31.30
2022-11-15T19:08:47.559Z,27.77
2022-11-15T19:16:23.476Z,28.25
2022-11-15T19:23:57.693Z,28.90
2022-11-15T19:31:33.887Z,30.17
2022-11-15T19:39:10.222Z,25.85
2022-11-15T19:46:45.880Z,30.63
2022-11-15T19:54:20.212Z,26.98
2022-11-15T20:01:55.790Z,26.20
2022-11-15T20:09:29.573Z,27.60
2022-11-15T20:17:04.695Z,25.42
2022-11-15T20:24:38.565Z,25.92
2022-11-15T20:32:14.042Z,29.20
2022-11-15T20:39:48.463Z,25.50
2022-11-15T20:47:29.050Z,28.13
2022-11-15T20:55:04.020Z,30.88
2022-11-15T21:02:39.859Z,31.48
2022-11-15T21:10:31.456Z,27.70
2022-11-15T21:18:07.216Z,29.50
2022-11-15T21:25:41.080Z,30.38
2022-11-15T21:33:16.912Z,31.43
2022-11-15T21:40:51.895Z,30.77
2022-11-15T21:48:27.343Z,27.42
2022-11-15T21:56:01.871Z,27.27
2022-11-15T22:03:37.179Z,28.02
2022-11-15T22:11:11.146Z,29.23
2022-11-15T22:18:47.051Z,29.47
2022-11-15T22:26:23.770Z,28.77
2022-11-15T22:33:59.627Z,29.13
2022-11-15T22:41:33.597Z,27.73
2022-11-15T22:49:09.635Z,30.53
2022-11-15T22:56:43.551Z,28.08
2022-11-15T23:04:19.162Z,31.37
2022-11-15T23:12:10.550Z,28.85
2022-11-15T23:19:45.846Z,27.67
2022-11-15T23:27:20.714Z,28.73
2022-11-15T23:34:56.078Z,24.67
2022-11-15T23:42:30.173Z,28.58
2022-11-15T23:50:08.139Z,27.13
2022-11-15T23:57:42.118Z,29.73
